Elk Mountain, WY (82324)

6:51 PM MDT on September 30, 2014 (GMT -0600)
WYDOT | Change Station
CLOSE
Current Station
Personal Weather Station
Location: Elk Mountain, WY
Elevation: 2377 m
Nearby Weather Stations

Elev 2377 m 41.60 °N, 106.21 °W | Updated 2 days ago

Overcast
Overcast
6 °C
Feels Like 6 °C
N
37
Wind Variable Wind from West
Gusts 61 km/h

Today
High -- | Low -- °C
--% Chance of Precip.
Yesterday
High -- | Low -- °C
Precip. -- mm
7:01 AM 6:48 PM
Waxing Crescent, 41% visible
Pressure 1012 hPa
Visibility 11.3 kilometers
Clouds Mostly Cloudy 975 m
Mostly Cloudy 1188 m
Overcast 1524 m
Dew Point 2 °C
Humidity 78%
Rainfall -25375 mm
Snow Depth 0 in , 0 in , 0 in
UV 0 out of 12
Pollen 2.90 out of 12
Air Quality Not available.
Flu Activity Not available.
METAR KEHY 010035Z AUTO 23016G20KT 7SM RA BKN032 BKN039 OVC050 05/03 A2988 RMK AO2 LTG DSNT W

More Conditions Fewer Conditions

Pressure 1012 hPa
Visibility 11.3 kilometers
Clouds Mostly Cloudy 975 m
Mostly Cloudy 1188 m
Overcast 1524 m
Dew Point 2 °C
Humidity 78%
Rainfall -25375 mm
Snow Depth 0 in , 0 in , 0 in
UV 0 out of 12
Pollen 2.90 out of 12
Air Quality Not available.
Flu Activity Not available.
METAR KEHY 010035Z AUTO 23016G20KT 7SM RA BKN032 BKN039 OVC050 05/03 A2988 RMK AO2 LTG DSNT W

More Conditions Fewer Conditions

10-Day Weather Forecast

Almanac

Astronomy

Sep. 30, 2014 Rise Set
Actual Time 7:01 AM MDT 6:48 PM MDT
Civil Twilight 6:33 AM MDT 7:16 PM MDT
Nautical Twilight 6:01 AM MDT 7:48 PM MDT
Astronomical Twilight 5:28 AM MDT 8:21 PM MDT
Moon 1:15 PM MDT (9/30) 11:18 PM MDT (9/30)
Length of Visible Light 12h 42m
Length of Day
11h 47m
Tomorrow will be 2m 47s shorter.
Waxing Crescent, 41% of the Moon is Illuminated
Today
Waxing Crescent
Oct 1
First Quarter
Oct 8
Full
Oct 15
Last Quarter
Oct 23
New

Today's Extremes

State Highs State Lows

Community

WunderPhotos

Upload Photos

1,757,801 photos uploaded!

Nearby

Snow Depth

Station Depth Elevation
Canyon 0 in 8090 ft
Kelley R.S. 0 in 8180 ft
Townsend Creek 0 in 8700 ft
Cinnabar Park 2 in 9690 ft
Sand Lake 1 in 10050 ft

Earthquake Activity

City Distance Mag. Time & Date
No recent earthquake activity has been reported nearby.
Minimum magnitude displayed is 2.5.

Coastal Water Temperatures

Place Temperature
No Stations Reporting

Nearby Weather Stations